| Date | Time | Temp. (oF) | Dew Point (oF) | Rel. Hum. (%) | Press. (in.) | Wind Dir. | Wind Speed (mph) | Hourly Rainfall (in.) |
|
|---|---|---|---|---|---|---|---|---|---|
| 1 | 02/21 | 00:00 | 51 | 39 | 64 | 30.00 | SSW | 5 | 0.00 |
| 2 | 02/20 | 23:00 | 52 | 41 | 67 | 30.00 | SW | 2 | 0.00 |
| 3 | 02/20 | 22:00 | 53 | 40 | 62 | 30.02 | WSW | 2 | 0.00 |
| 4 | 02/20 | 21:00 | 54 | 39 | 59 | 30.03 | SW | 2 | 0.00 |
| 5 | 02/20 | 20:00 | 55 | 39 | 57 | 30.03 | S | 4 | 0.00 |
| 6 | 02/20 | 19:00 | 56 | 39 | 54 | 30.05 | SW | 7 | 0.00 |
| 7 | 02/20 | 18:00 | 56 | 34 | 44 | 30.04 | S | 4 | 0.00 |
| 8 | 02/20 | 17:00 | 58 | 33 | 39 | 30.03 | S | 4 | 0.00 |
| 9 | 02/20 | 16:00 | 59 | 33 | 39 | 30.03 | SSW | 6 | 0.00 |
| 10 | 02/20 | 15:00 | 57 | 34 | 42 | 30.05 | S | 5 | 0.00 |
| 11 | 02/20 | 14:00 | 54 | 33 | 45 | 30.08 | SSW | 6 | 0.00 |
| 12 | 02/20 | 13:00 | 51 | 33 | 51 | 30.11 | S | 5 | 0.00 |
| 13 | 02/20 | 12:00 | 47 | 32 | 58 | 30.15 | SSE | 3 | 0.00 |
| 14 | 02/20 | 11:00 | 44 | 31 | 61 | 30.19 | E | 1 | 0.00 |
| 15 | 02/20 | 10:00 | 43 | 30 | 61 | 30.20 | NW | 2 | 0.00 |
| 16 | 02/20 | 09:00 | 42 | 29 | 62 | 30.20 | WNW | 1 | 0.00 |
| 17 | 02/20 | 08:00 | 39 | 28 | 66 | 30.18 | S | 2 | 0.00 |
| 18 | 02/20 | 07:00 | 37 | 27 | 69 | 30.17 | SSE | 0 | 0.00 |
| 19 | 02/20 | 06:00 | 37 | 27 | 68 | 30.18 | S | 1 | 0.00 |
| 20 | 02/20 | 05:00 | 37 | 26 | 66 | 30.18 | S | 2 | 0.00 |
| 21 | 02/20 | 04:00 | 38 | 26 | 64 | 30.18 | S | 0 | 0.00 |
| 22 | 02/20 | 03:00 | 40 | 26 | 58 | 30.19 | S | 2 | 0.00 |
| 23 | 02/20 | 02:00 | 40 | 25 | 57 | 30.19 | SSW | 7 | 0.00 |
| 24 | 02/20 | 01:00 | 39 | 26 | 60 | 30.19 | SSW | 5 | 0.00 |